Time;durP1;ratioP1;P1;durP2;ratioP2;P2;SDS_P1;SDS_P2;PMS_P1;PMS_P2;Temp;Humidity;BMP_temperature;BMP_pressure;BME280_temperature;BME280_humidity;BME280_pressure;Samples;Min_cycle;Max_cycle;Signal;HPM_P1;HPM_P2
2022/04/08 00:00:17;;;;;;;7.47;1.05;;;5.20;1.00;;;;;;5022372;28;20041;-78
2022/04/08 00:02:44;;;;;;;3.45;0.50;;;5.20;99.90;;;;;;5021225;28;20034;-78
2022/04/08 00:05:10;;;;;;;1.90;0.43;;;5.20;99.90;;;;;;5021536;28;20033;-78
2022/04/08 00:07:36;;;;;;;6.97;1.20;;;5.10;99.90;;;;;;5021669;28;20456;-78
2022/04/08 00:10:07;;;;;;;4.88;1.25;;;5.10;97.70;;;;;;5014309;28;20025;-79
2022/04/08 00:12:33;;;;;;;4.75;0.70;;;4.80;1.00;;;;;;5023955;28;20068;-79
2022/04/08 00:14:59;;;;;;;4.38;0.47;;;4.80;99.90;;;;;;5024821;28;20046;-79
2022/04/08 00:17:25;;;;;;;6.28;0.65;;;4.70;99.90;;;;;;5024918;28;20056;-79
2022/04/08 00:19:50;;;;;;;4.88;0.70;;;4.70;99.90;;;;;;5022907;28;20119;-79
2022/04/08 00:22:18;;;;;;;2.15;0.57;;;4.70;99.90;;;;;;5022431;28;20014;-79
2022/04/08 00:24:44;;;;;;;3.25;0.70;;;4.60;99.90;;;;;;5030500;28;20026;-80
2022/04/08 00:27:10;;;;;;;4.50;0.50;;;4.60;99.90;;;;;;5035322;28;20113;-78
2022/04/08 00:29:35;;;;;;;1.30;0.60;;;4.60;99.90;;;;;;5034915;28;20014;-80
2022/04/08 00:32:01;;;;;;;8.35;1.25;;;4.70;99.90;;;;;;5034010;28;20026;-80
2022/04/08 00:34:27;;;;;;;3.00;1.13;;;4.70;99.90;;;;;;5033037;28;20114;-79
2022/04/08 00:36:54;;;;;;;5.05;0.60;;;4.60;99.90;;;;;;5032333;28;20034;-80
2022/04/08 00:39:21;;;;;;;6.32;0.93;;;4.70;99.90;;;;;;5031886;28;20022;-79
2022/04/08 00:41:47;;;;;;;9.27;1.00;;;4.70;99.90;;;;;;5030587;28;20044;-79
2022/04/08 00:44:13;;;;;;;6.82;1.00;;;4.60;99.90;;;;;;5030130;28;20026;-79
2022/04/08 00:46:38;;;;;;;5.10;0.80;;;4.70;99.90;;;;;;5029579;28;20073;-80
2022/04/08 00:49:05;;;;;;;2.30;0.63;;;4.70;99.90;;;;;;5029078;28;20057;-79
2022/04/08 00:51:33;;;;;;;5.93;1.48;;;4.60;99.90;;;;;;5028115;28;20026;-79
2022/04/08 00:53:59;;;;;;;4.07;0.60;;;4.70;99.90;;;;;;5027195;28;20014;-79
2022/04/08 00:56:27;;;;;;;8.93;2.15;;;4.60;99.90;;;;;;5026867;28;20093;-80
2022/04/08 00:58:54;;;;;;;8.95;1.00;;;4.60;99.90;;;;;;5026842;28;20033;-79
2022/04/08 01:01:20;;;;;;;7.30;1.85;;;4.50;99.90;;;;;;5026133;28;20014;-79
2022/04/08 01:03:46;;;;;;;10.07;1.27;;;4.40;99.90;;;;;;5025127;28;20076;-79
2022/04/08 01:06:12;;;;;;;8.68;1.40;;;4.30;99.90;;;;;;5026440;28;20037;-79
2022/04/08 01:08:38;;;;;;;4.65;1.33;;;4.30;99.90;;;;;;5028595;28;20045;-79
2022/04/08 01:11:04;;;;;;;8.95;1.48;;;4.10;99.90;;;;;;5028896;28;20053;-79
2022/04/08 01:13:30;;;;;;;7.63;1.17;;;4.10;99.90;;;;;;5028660;28;20022;-79
2022/04/08 01:15:55;;;;;;;4.78;0.88;;;4.10;99.90;;;;;;5028091;28;20401;-79
2022/04/08 01:18:21;;;;;;;8.35;1.40;;;4.10;99.90;;;;;;5027462;28;20032;-78
2022/04/08 01:20:47;;;;;;;6.68;0.88;;;4.20;99.90;;;;;;5027580;28;20444;-79
2022/04/08 01:23:17;;;;;;;10.23;1.30;;;4.20;99.90;;;;;;5026973;28;20109;-79
2022/04/08 01:25:43;;;;;;;12.32;1.60;;;4.30;99.90;;;;;;5027100;28;20026;-78
2022/04/08 01:28:08;;;;;;;12.00;1.05;;;4.30;99.90;;;;;;5027347;28;20033;-79
2022/04/08 01:30:34;;;;;;;7.90;1.15;;;4.50;99.90;;;;;;5025270;28;20022;-78
2022/04/08 01:32:59;;;;;;;6.15;0.73;;;4.60;99.90;;;;;;5024813;28;20018;-79
2022/04/08 01:35:25;;;;;;;9.30;1.48;;;4.60;99.90;;;;;;5026042;28;20050;-80
2022/04/08 01:37:50;;;;;;;11.35;1.30;;;4.80;99.90;;;;;;5025320;28;20038;-79
2022/04/08 01:40:17;;;;;;;6.15;1.38;;;5.00;99.90;;;;;;5025891;28;20052;-79
2022/04/08 01:42:42;;;;;;;10.15;1.17;;;5.00;99.90;;;;;;5025768;28;20054;-79
2022/04/08 01:45:09;;;;;;;11.73;0.90;;;5.30;98.20;;;;;;5025329;28;20657;-79
2022/04/08 01:47:36;;;;;;;5.03;1.00;;;5.30;99.90;;;;;;5024711;28;20508;-79
2022/04/08 01:50:02;;;;;;;8.20;1.13;;;5.40;78.40;;;;;;5024852;28;20022;-79
2022/04/08 01:52:28;;;;;;;7.97;1.20;;;5.40;92.60;;;;;;5024848;28;20018;-79
2022/04/08 01:54:53;;;;;;;6.95;1.00;;;5.30;99.90;;;;;;5024819;28;20113;-79
2022/04/08 01:57:23;;;;;;;8.15;1.05;;;5.00;99.90;;;;;;5029988;28;20025;-79
2022/04/08 01:59:52;;;;;;;5.03;1.55;;;5.00;90.00;;;;;;5029528;28;20029;-79
2022/04/08 02:02:18;;;;;;;10.15;1.83;;;5.00;82.20;;;;;;5028126;28;20064;-79
2022/04/08 02:04:44;;;;;;;12.40;1.95;;;5.00;86.50;;;;;;5028398;28;20029;-79
2022/04/08 02:07:09;;;;;;;7.45;0.73;;;5.20;60.40;;;;;;5028402;28;20026;-79
2022/04/08 02:09:35;;;;;;;9.68;1.40;;;5.30;89.30;;;;;;5027400;28;20104;-79
2022/04/08 02:12:01;;;;;;;7.78;1.25;;;5.10;98.60;;;;;;5026374;28;20030;-79
2022/04/08 02:14:26;;;;;;;4.13;1.40;;;5.00;99.90;;;;;;5026008;28;20050;-79
2022/04/08 02:16:52;;;;;;;6.05;1.10;;;4.90;70.20;;;;;;5020229;28;20038;-79
2022/04/08 02:19:18;;;;;;;11.15;1.08;;;4.80;62.90;;;;;;5015022;28;20506;-79
2022/04/08 02:21:44;;;;;;;6.63;1.25;;;4.70;31.20;;;;;;5012455;28;20481;-79
2022/04/08 02:24:09;;;;;;;6.05;1.42;;;4.80;18.70;;;;;;5026126;28;20025;-79
2022/04/08 02:26:35;;;;;;;5.55;1.20;;;4.60;40.30;;;;;;5025616;28;20032;-79
2022/04/08 02:29:01;;;;;;;3.90;1.35;;;4.60;57.80;;;;;;5025382;28;20030;-79
2022/04/08 02:31:26;;;;;;;7.70;1.33;;;4.60;48.20;;;;;;5017838;28;20369;-79
2022/04/08 02:33:52;;;;;;;5.05;1.10;;;4.60;28.50;;;;;;5025140;28;20116;-80
2022/04/08 02:36:18;;;;;;;7.30;0.93;;;4.70;54.10;;;;;;5024768;28;20022;-79
2022/04/08 02:38:43;;;;;;;8.77;1.23;;;4.70;50.40;;;;;;5024275;28;20033;-80
2022/04/08 02:41:09;;;;;;;8.70;1.83;;;4.70;71.50;;;;;;5023584;28;20017;-79
2022/04/08 02:43:34;;;;;;;4.28;0.65;;;4.70;68.00;;;;;;5022825;28;20049;-79
2022/04/08 02:46:01;;;;;;;4.90;1.08;;;4.80;69.80;;;;;;5024645;28;20081;-79
2022/04/08 02:48:26;;;;;;;3.60;1.00;;;5.20;42.10;;;;;;5014213;28;20030;-79
2022/04/08 02:50:52;;;;;;;4.50;0.93;;;5.30;46.90;;;;;;5024699;28;20029;-79
2022/04/08 02:53:18;;;;;;;4.75;0.70;;;5.30;96.60;;;;;;5024231;28;20025;-79
2022/04/08 02:55:43;;;;;;;6.68;0.77;;;5.20;80.90;;;;;;5024620;28;20030;-79
2022/04/08 02:58:09;;;;;;;1.77;0.55;;;4.90;21.10;;;;;;5024239;28;20057;-79
2022/04/08 03:00:34;;;;;;;2.25;0.90;;;4.70;1.00;;;;;;5023226;28;20018;-79
2022/04/08 03:03:00;;;;;;;3.90;0.70;;;4.50;2.20;;;;;;5023687;28;20378;-79
2022/04/08 03:05:25;;;;;;;7.65;0.77;;;4.50;1.00;;;;;;5023368;28;20104;-79
2022/04/08 03:07:52;;;;;;;4.40;0.68;;;4.50;1.00;;;;;;5022113;28;20053;-79
2022/04/08 03:10:17;;;;;;;2.05;0.30;;;4.60;99.90;;;;;;5008490;28;20493;-79
2022/04/08 03:12:43;;;;;;;1.83;0.32;;;4.20;99.90;;;;;;5019545;28;20053;-79
2022/04/08 03:15:09;;;;;;;3.33;0.70;;;4.10;99.90;;;;;;5023853;28;20571;-79
2022/04/08 03:17:36;;;;;;;7.30;0.90;;;4.10;99.90;;;;;;5023789;28;20176;-79
2022/04/08 03:20:02;;;;;;;3.30;0.98;;;4.00;99.90;;;;;;5024155;28;20021;-79
2022/04/08 03:22:27;;;;;;;6.57;0.93;;;3.90;99.90;;;;;;5023019;28;20022;-79
2022/04/08 03:24:54;;;;;;;6.07;1.20;;;3.80;99.90;;;;;;5023109;28;20366;-79
2022/04/08 03:27:19;;;;;;;1.13;0.50;;;3.70;99.90;;;;;;5023979;28;20038;-79
2022/04/08 03:29:45;;;;;;;3.83;0.70;;;3.60;99.90;;;;;;5022234;28;20045;-79
2022/04/08 03:32:11;;;;;;;2.03;0.32;;;3.50;99.90;;;;;;5022037;28;20018;-79
2022/04/08 03:34:37;;;;;;;2.17;0.57;;;3.40;99.90;;;;;;5022708;28;20033;-79
2022/04/08 03:37:04;;;;;;;2.92;0.57;;;3.30;99.90;;;;;;5022472;28;20061;-79
2022/04/08 03:39:29;;;;;;;3.28;0.77;;;3.20;99.90;;;;;;5022769;28;20037;-79
2022/04/08 03:41:55;;;;;;;3.67;0.60;;;3.20;99.90;;;;;;5033040;28;20014;-80
2022/04/08 03:44:21;;;;;;;7.53;0.93;;;3.00;99.90;;;;;;5036173;28;20029;-78
2022/04/08 03:46:47;;;;;;;1.80;0.40;;;2.90;99.90;;;;;;5034625;28;20029;-80
2022/04/08 03:49:16;;;;;;;3.67;0.60;;;3.00;99.90;;;;;;5034093;28;20350;-79
2022/04/08 03:51:46;;;;;;;6.80;1.30;;;2.90;99.90;;;;;;5033385;28;20014;-79
2022/04/08 03:54:12;;;;;;;2.85;0.57;;;3.00;99.90;;;;;;5033021;28;20080;-79
2022/04/08 03:56:41;;;;;;;1.90;0.47;;;3.10;99.90;;;;;;5033756;28;20021;-79
2022/04/08 03:59:07;;;;;;;3.60;1.02;;;3.20;99.90;;;;;;5032489;28;20033;-79
2022/04/08 04:01:33;;;;;;;2.97;0.63;;;3.40;99.90;;;;;;5031584;28;20026;-78
2022/04/08 04:03:58;;;;;;;2.95;0.82;;;3.50;99.90;;;;;;5021865;28;20022;-79
2022/04/08 04:06:25;;;;;;;5.57;0.98;;;3.90;99.90;;;;;;5011189;28;20604;-79
2022/04/08 04:08:50;;;;;;;7.82;1.52;;;4.00;99.90;;;;;;5023595;28;20038;-78
2022/04/08 04:11:16;;;;;;;1.55;0.70;;;3.90;99.90;;;;;;5027867;28;20030;-78
2022/04/08 04:13:46;;;;;;;1.23;0.80;;;3.90;99.90;;;;;;5028181;28;20021;-78
2022/04/08 04:16:12;;;;;;;2.40;1.02;;;3.80;99.90;;;;;;5023191;28;20494;-79
2022/04/08 04:18:38;;;;;;;4.95;1.40;;;3.80;1.00;;;;;;5025355;28;20022;-78
2022/04/08 04:21:04;;;;;;;5.43;1.00;;;3.80;99.90;;;;;;5024917;28;20026;-78
2022/04/08 04:23:33;;;;;;;1.55;1.13;;;3.80;99.90;;;;;;5030747;28;20024;-78
2022/04/08 04:25:59;;;;;;;4.15;0.80;;;3.70;99.90;;;;;;5024170;28;20030;-78
2022/04/08 04:28:28;;;;;;;2.95;1.20;;;3.70;99.90;;;;;;5024055;28;20030;-78
2022/04/08 04:30:54;;;;;;;2.53;1.00;;;3.70;99.90;;;;;;5019879;28;20474;-78
2022/04/08 04:33:19;;;;;;;2.75;0.98;;;3.70;99.90;;;;;;5015002;28;20078;-77
2022/04/08 04:35:45;;;;;;;3.35;1.00;;;3.70;99.90;;;;;;5013872;28;20042;-78
2022/04/08 04:38:10;;;;;;;2.35;1.20;;;3.70;99.90;;;;;;5010876;28;20057;-78
2022/04/08 04:40:36;;;;;;;2.65;1.20;;;3.60;99.90;;;;;;5015547;28;20540;-79
2022/04/08 04:43:01;;;;;;;4.70;0.98;;;3.40;99.90;;;;;;5011447;28;20037;-79
2022/04/08 04:45:27;;;;;;;6.03;1.10;;;3.30;99.90;;;;;;5017108;28;20025;-79
2022/04/08 04:47:52;;;;;;;3.70;1.00;;;3.10;99.90;;;;;;5016929;28;20117;-79
2022/04/08 04:50:18;;;;;;;6.55;1.20;;;3.10;99.90;;;;;;5016310;28;20056;-79
2022/04/08 04:52:43;;;;;;;5.05;1.25;;;3.00;99.90;;;;;;5031645;28;20037;-80
2022/04/08 04:55:09;;;;;;;3.00;1.00;;;2.90;99.90;;;;;;5035883;28;20010;-79
2022/04/08 04:57:35;;;;;;;3.97;1.13;;;2.80;99.90;;;;;;5035929;28;20089;-79
2022/04/08 05:00:03;;;;;;;4.88;1.00;;;2.80;99.90;;;;;;5035374;28;20022;-81
2022/04/08 05:02:28;;;;;;;7.10;1.30;;;2.90;99.90;;;;;;5036325;28;20058;-80
2022/04/08 05:04:54;;;;;;;4.18;1.05;;;3.00;99.90;;;;;;5036509;28;20018;-80
2022/04/08 05:07:19;;;;;;;3.05;0.80;;;3.10;99.90;;;;;;5035317;28;20082;-80
2022/04/08 05:09:45;;;;;;;2.85;1.10;;;3.30;99.90;;;;;;5035856;28;20018;-80
2022/04/08 05:12:10;;;;;;;3.95;1.10;;;3.40;99.90;;;;;;5035837;28;20033;-80
2022/04/08 05:14:36;;;;;;;4.68;1.35;;;3.50;99.90;;;;;;5033603;28;20046;-79
2022/04/08 05:17:03;;;;;;;3.78;1.27;;;3.60;99.90;;;;;;5027466;28;20022;-79
2022/04/08 05:19:29;;;;;;;3.35;1.40;;;3.70;99.90;;;;;;5031426;28;20070;-81
2022/04/08 05:21:55;;;;;;;5.78;2.47;;;3.70;99.90;;;;;;5026272;28;20073;-79
2022/04/08 05:24:21;;;;;;;5.10;1.20;;;3.80;99.90;;;;;;5021998;28;20029;-79
2022/04/08 05:26:47;;;;;;;3.35;1.20;;;3.80;99.90;;;;;;5030520;28;20026;-79
2022/04/08 05:29:12;;;;;;;5.80;1.60;;;3.70;99.90;;;;;;5014434;28;20045;-79
2022/04/08 05:31:38;;;;;;;5.53;1.63;;;3.70;99.90;;;;;;5021991;28;20064;-79
2022/04/08 05:34:03;;;;;;;2.47;1.20;;;3.70;99.90;;;;;;5024294;28;20036;-79
2022/04/08 05:36:29;;;;;;;5.18;1.38;;;3.70;99.90;;;;;;5020709;28;20034;-79
2022/04/08 05:38:55;;;;;;;5.28;1.35;;;3.90;99.90;;;;;;5023164;28;20075;-79
2022/04/08 05:41:21;;;;;;;3.15;1.40;;;3.90;99.90;;;;;;5029752;28;20006;-79
2022/04/08 05:43:46;;;;;;;8.45;1.85;;;3.90;99.90;;;;;;5021157;28;20026;-79
2022/04/08 05:46:13;;;;;;;4.78;1.80;;;3.80;99.90;;;;;;5019631;28;20026;-79
2022/04/08 05:48:38;;;;;;;4.63;1.95;;;3.80;99.90;;;;;;5022368;28;20026;-78
2022/04/08 05:51:04;;;;;;;6.72;1.40;;;3.80;99.90;;;;;;5027497;28;20075;-80
2022/04/08 05:53:29;;;;;;;5.25;1.65;;;3.80;99.90;;;;;;5031375;28;20355;-79
2022/04/08 05:55:59;;;;;;;6.80;1.60;;;4.00;99.90;;;;;;5027468;28;20006;-79
2022/04/08 05:58:26;;;;;;;5.73;1.47;;;4.20;99.90;;;;;;5036678;28;20101;-80
2022/04/08 06:00:51;;;;;;;10.38;1.70;;;4.40;99.90;;;;;;5032147;28;20271;-80
2022/04/08 06:03:17;;;;;;;4.15;1.27;;;4.50;99.90;;;;;;5034781;28;20076;-80
2022/04/08 06:05:42;;;;;;;7.68;1.60;;;4.50;99.90;;;;;;5037425;28;20450;-79
2022/04/08 06:08:08;;;;;;;11.10;1.70;;;4.70;99.90;;;;;;5034205;28;20032;-80
2022/04/08 06:10:34;;;;;;;6.28;1.70;;;4.70;99.90;;;;;;5032651;28;20025;-79
2022/04/08 06:13:01;;;;;;;5.25;1.10;;;4.80;99.90;;;;;;5024274;28;20057;-79
2022/04/08 06:15:27;;;;;;;6.97;1.50;;;4.90;99.90;;;;;;5032573;28;20211;-80
2022/04/08 06:17:54;;;;;;;5.18;1.63;;;4.90;99.90;;;;;;5033306;28;20026;-79
2022/04/08 06:20:21;;;;;;;6.43;1.63;;;5.00;99.90;;;;;;5032299;28;20018;-79
2022/04/08 06:22:47;;;;;;;5.97;1.83;;;5.00;99.90;;;;;;5032658;28;20033;-80
2022/04/08 06:25:16;;;;;;;4.95;1.45;;;5.10;99.90;;;;;;5031103;28;20483;-80
2022/04/08 06:27:53;;;;;;;7.22;1.38;;;5.20;99.90;;;;;;5029976;28;20160;-80
2022/04/08 06:30:19;;;;;;;5.68;1.30;;;5.40;99.90;;;;;;5029061;28;20392;-79
2022/04/08 06:32:44;;;;;;;7.72;1.50;;;5.70;99.90;;;;;;5033750;28;20050;-80
2022/04/08 06:35:11;;;;;;;4.22;0.85;;;6.00;99.90;;;;;;5030260;28;20026;-80
2022/04/08 06:37:36;;;;;;;4.30;0.85;;;6.30;36.80;;;;;;5028381;28;20018;-80
2022/04/08 06:40:04;;;;;;;2.72;0.60;;;6.40;1.00;;;;;;5035316;28;20029;-79
2022/04/08 06:42:29;;;;;;;2.33;0.73;;;6.30;1.00;;;;;;5027411;28;20044;-79
2022/04/08 06:44:55;;;;;;;2.45;0.40;;;6.10;1.00;;;;;;5028998;28;20022;-80
2022/04/08 06:47:20;;;;;;;4.00;0.70;;;5.90;1.00;;;;;;5034985;28;20030;-81
2022/04/08 06:49:46;;;;;;;2.05;1.33;;;5.80;1.00;;;;;;5029714;28;20037;-80
2022/04/08 06:52:13;;;;;;;2.05;0.50;;;7.40;1.00;;;;;;5030811;28;20014;-79
2022/04/08 06:54:39;;;;;;;4.47;0.60;;;12.30;99.90;;;;;;5034219;28;20097;-80
2022/04/08 06:57:04;;;;;;;3.90;0.60;;;16.50;99.90;;;;;;5020410;28;20034;-80
2022/04/08 06:59:30;;;;;;;1.33;0.60;;;18.70;99.90;;;;;;5027667;28;20099;-79
2022/04/08 07:01:55;;;;;;;1.33;0.70;;;19.40;99.90;;;;;;5027026;28;20045;-80
2022/04/08 07:04:21;;;;;;;1.85;0.50;;;19.50;99.90;;;;;;5023217;28;20034;-80
2022/04/08 07:06:46;;;;;;;0.60;0.40;;;21.20;99.90;;;;;;5028078;28;20026;-79
2022/04/08 07:09:12;;;;;;;2.47;0.40;;;23.10;99.90;;;;;;5029653;28;20386;-80
2022/04/08 07:11:37;;;;;;;1.67;0.63;;;24.40;99.90;;;;;;5027939;28;20107;-80
2022/04/08 07:14:04;;;;;;;1.58;0.50;;;24.00;99.90;;;;;;5025877;28;20022;-80
2022/04/08 07:16:30;;;;;;;2.42;0.50;;;26.10;99.90;;;;;;5028542;28;20084;-81
2022/04/08 07:18:55;;;;;;;4.22;0.80;;;25.10;99.90;;;;;;5023660;28;20114;-80
2022/04/08 07:21:22;;;;;;;3.05;0.65;;;25.40;99.90;;;;;;5014554;28;20034;-80
2022/04/08 07:23:48;;;;;;;1.63;0.70;;;25.80;99.90;;;;;;5001224;28;20382;-81
2022/04/08 07:26:14;;;;;;;2.40;0.60;;;26.60;99.90;;;;;;5016554;28;20026;-81
2022/04/08 07:28:40;;;;;;;3.97;0.73;;;27.20;99.90;;;;;;5007363;28;20042;-81
2022/04/08 07:31:05;;;;;;;1.25;0.68;;;28.50;99.90;;;;;;5004714;28;20018;-80
2022/04/08 07:33:31;;;;;;;2.38;0.70;;;27.50;99.90;;;;;;5018702;28;20048;-81
2022/04/08 07:35:58;;;;;;;3.42;0.85;;;28.80;99.90;;;;;;5005509;28;20022;-81
2022/04/08 07:38:25;;;;;;;2.40;0.98;;;28.30;99.90;;;;;;4998869;28;20386;-80
2022/04/08 07:40:50;;;;;;;1.90;0.70;;;27.90;99.90;;;;;;5010550;28;20033;-80
2022/04/08 07:43:17;;;;;;;2.13;0.70;;;25.30;99.90;;;;;;5017136;28;20026;-80
2022/04/08 07:45:43;;;;;;;3.08;0.88;;;27.90;99.90;;;;;;5017585;28;20025;-81
2022/04/08 07:48:09;;;;;;;3.58;0.95;;;29.10;99.90;;;;;;5017120;28;20124;-81
2022/04/08 07:50:37;;;;;;;3.60;0.80;;;27.00;99.90;;;;;;5017691;28;20030;-81
2022/04/08 07:53:03;;;;;;;5.85;0.75;;;27.90;99.90;;;;;;5011794;28;20076;-81
2022/04/08 07:55:29;;;;;;;1.33;0.50;;;28.40;99.90;;;;;;5003180;28;20033;-81
2022/04/08 07:57:54;;;;;;;3.15;0.90;;;29.20;99.90;;;;;;5014941;28;20021;-81
2022/04/08 08:00:25;;;;;;;4.00;1.10;;;29.20;99.90;;;;;;5014862;28;20097;-81
2022/04/08 08:02:51;;;;;;;3.80;0.90;;;31.10;99.90;;;;;;5014593;28;20032;-81
2022/04/08 08:05:18;;;;;;;2.63;0.85;;;31.00;99.90;;;;;;5016957;28;20178;-81
2022/04/08 08:07:45;;;;;;;4.28;0.90;;;31.10;99.90;;;;;;5016962;28;20029;-82
2022/04/08 08:10:23;;;;;;;4.80;0.77;;;30.40;99.90;;;;;;5027686;28;20010;-82
2022/04/08 08:12:50;;;;;;;5.55;0.85;;;31.60;99.90;;;;;;5026694;28;20029;-81
2022/04/08 08:15:16;;;;;;;3.47;1.13;;;28.60;99.90;;;;;;5017378;28;20085;-81
2022/04/08 08:17:42;;;;;;;4.20;0.80;;;30.20;99.90;;;;;;5017919;28;20478;-81
2022/04/08 08:20:09;;;;;;;4.22;0.90;;;24.90;99.90;;;;;;5015626;28;20030;-81
2022/04/08 08:22:36;;;;;;;4.35;0.93;;;28.50;99.90;;;;;;5012440;28;20040;-81
2022/04/08 08:25:03;;;;;;;3.22;0.98;;;29.60;99.90;;;;;;5013956;28;20021;-81
2022/04/08 08:27:36;;;;;;;3.63;1.00;;;32.20;99.90;;;;;;5015493;28;20098;-81
2022/04/08 08:30:03;;;;;;;3.80;0.90;;;34.50;99.90;;;;;;5002556;28;20022;-81
2022/04/08 08:32:28;;;;;;;3.65;0.85;;;34.20;99.90;;;;;;5016943;28;20050;-81
2022/04/08 08:34:54;;;;;;;4.38;0.80;;;28.90;99.90;;;;;;5018364;28;20040;-81
2022/04/08 08:37:19;;;;;;;5.18;1.08;;;23.60;99.90;;;;;;5015296;28;20105;-81
2022/04/08 08:39:45;;;;;;;3.53;0.80;;;27.70;99.90;;;;;;5012034;28;20507;-81
2022/04/08 08:42:11;;;;;;;4.40;1.13;;;26.60;99.90;;;;;;5011535;28;20022;-81
2022/04/08 08:44:39;;;;;;;3.90;1.00;;;24.90;99.90;;;;;;5013500;28;20114;-80
2022/04/08 08:47:10;;;;;;;6.05;1.00;;;22.00;99.90;;;;;;5015114;28;20024;-81
2022/04/08 08:49:37;;;;;;;2.42;0.70;;;21.30;99.90;;;;;;5014661;28;20036;-81
2022/04/08 08:52:06;;;;;;;2.20;0.60;;;23.80;99.90;;;;;;5013123;28;20593;-80
2022/04/08 08:54:32;;;;;;;7.05;1.10;;;23.00;99.90;;;;;;5012630;28;20129;-80
2022/04/08 08:57:00;;;;;;;3.20;0.60;;;19.80;99.90;;;;;;5003712;28;20030;-80
2022/04/08 08:59:26;;;;;;;2.83;0.90;;;17.50;99.90;;;;;;5011968;28;20030;-81
2022/04/08 09:02:00;;;;;;;4.97;0.98;;;20.20;99.90;;;;;;5012374;28;20026;-80
2022/04/08 09:04:26;;;;;;;3.95;1.10;;;19.80;99.90;;;;;;5011991;28;20388;-80
2022/04/08 09:06:51;;;;;;;6.45;1.10;;;19.80;99.90;;;;;;5011784;28;20501;-80
2022/04/08 09:09:28;;;;;;;4.22;0.90;;;24.80;99.90;;;;;;5012572;28;20030;-80
2022/04/08 09:11:54;;;;;;;4.30;1.02;;;24.30;99.90;;;;;;5013862;28;20037;-81
2022/04/08 09:14:27;;;;;;;2.70;0.68;;;22.70;99.90;;;;;;5026948;28;20025;-80
2022/04/08 09:17:00;;;;;;;5.32;0.60;;;18.50;99.90;;;;;;5011717;28;20018;-80
2022/04/08 09:19:25;;;;;;;6.53;1.05;;;15.90;99.90;;;;;;5012349;28;20029;-80
2022/04/08 09:21:54;;;;;;;1.27;0.57;;;18.60;99.90;;;;;;5012628;28;20030;-80
2022/04/08 09:24:23;;;;;;;4.72;0.95;;;23.00;99.90;;;;;;5013866;28;20022;-80
2022/04/08 09:26:56;;;;;;;2.15;0.63;;;26.80;99.90;;;;;;5012444;28;20393;-80
2022/04/08 09:29:23;;;;;;;1.63;0.50;;;27.70;99.90;;;;;;5016328;28;20022;-80
2022/04/08 09:31:50;;;;;;;2.92;0.60;;;28.00;99.90;;;;;;5022862;28;20021;-80
2022/04/08 09:34:16;;;;;;;2.13;0.50;;;27.50;99.90;;;;;;5023635;28;20030;-79
2022/04/08 09:36:42;;;;;;;1.88;0.68;;;28.80;99.90;;;;;;5014231;28;20119;-80
2022/04/08 09:39:10;;;;;;;2.67;0.77;;;30.20;99.90;;;;;;5015365;28;20096;-80
2022/04/08 09:41:44;;;;;;;3.22;0.90;;;28.40;99.90;;;;;;5016138;28;20385;-81
2022/04/08 09:44:11;;;;;;;3.80;1.10;;;28.60;99.90;;;;;;5014864;28;20209;-80
2022/04/08 09:46:37;;;;;;;4.10;0.70;;;26.10;99.90;;;;;;5014328;28;20496;-80
2022/04/08 09:49:04;;;;;;;6.55;0.85;;;23.80;99.90;;;;;;5014420;28;20386;-80
2022/04/08 09:51:36;;;;;;;1.70;0.65;;;22.20;99.90;;;;;;5008496;28;20034;-81
2022/04/08 09:54:05;;;;;;;3.17;0.80;;;26.40;99.90;;;;;;5016046;28;20045;-80
2022/04/08 09:56:31;;;;;;;7.35;1.27;;;24.00;99.90;;;;;;4998751;28;20064;-80
2022/04/08 09:59:06;;;;;;;2.80;0.70;;;21.10;99.90;;;;;;5004313;28;20117;-80
2022/04/08 10:01:33;;;;;;;2.22;0.70;;;20.30;99.90;;;;;;5012976;28;20034;-81
2022/04/08 10:04:00;;;;;;;2.53;0.50;;;16.60;99.90;;;;;;5017376;28;20109;-81
2022/04/08 10:06:27;;;;;;;1.05;0.57;;;15.00;99.90;;;;;;5016127;28;20042;-84
2022/04/08 10:08:53;;;;;;;1.40;0.60;;;14.70;99.90;;;;;;5007614;28;20033;-82
2022/04/08 10:11:30;;;;;;;1.98;0.70;;;18.20;99.90;;;;;;5006871;28;20022;-83
2022/04/08 10:14:10;;;;;;;2.53;0.52;;;23.20;99.90;;;;;;5024931;28;20033;-82
2022/04/08 10:16:39;;;;;;;2.28;0.57;;;22.80;99.90;;;;;;5014266;28;20038;-83
2022/04/08 10:19:07;;;;;;;2.85;0.60;;;19.90;99.90;;;;;;5010537;28;20021;-82
2022/04/08 10:21:39;;;;;;;2.63;0.52;;;18.10;99.90;;;;;;5008280;28;20424;-79
2022/04/08 10:24:13;;;;;;;2.47;0.73;;;20.30;99.90;;;;;;5005588;28;20548;-80
2022/04/08 10:27:04;;;;;;;4.43;0.90;;;19.50;99.90;;;;;;5006951;28;20046;-81
2022/04/08 10:29:33;;;;;;;4.22;0.90;;;20.60;99.90;;;;;;5007866;28;20493;-80
2022/04/08 10:32:14;;;;;;;4.82;1.00;;;21.00;99.90;;;;;;5013102;28;20030;-80
2022/04/08 10:34:39;;;;;;;8.93;1.15;;;22.50;99.90;;;;;;5012472;28;20022;-80
2022/04/08 10:37:21;;;;;;;2.72;0.60;;;22.30;99.90;;;;;;5012967;28;20057;-80
2022/04/08 10:39:57;;;;;;;3.80;1.13;;;19.20;99.90;;;;;;5013103;28;20026;-80
2022/04/08 10:42:23;;;;;;;2.83;0.70;;;19.60;99.90;;;;;;5003802;28;20027;-80
2022/04/08 10:44:49;;;;;;;4.05;0.80;;;24.70;99.90;;;;;;4999355;28;20026;-80
2022/04/08 10:47:16;;;;;;;4.18;1.25;;;21.40;99.90;;;;;;4995886;28;20524;-80
2022/04/08 10:49:56;;;;;;;2.80;0.60;;;23.30;99.90;;;;;;5012905;28;20033;-81
2022/04/08 10:52:24;;;;;;;2.40;0.73;;;21.80;99.90;;;;;;4997976;28;20093;-80
2022/04/08 10:54:51;;;;;;;3.83;0.80;;;21.30;99.90;;;;;;4995956;28;20026;-80
2022/04/08 10:57:36;;;;;;;2.97;0.70;;;17.90;99.90;;;;;;5011616;28;20061;-80
2022/04/08 11:00:10;;;;;;;3.42;0.93;;;17.60;99.90;;;;;;5012515;28;20025;-80
2022/04/08 11:02:37;;;;;;;3.05;0.77;;;17.10;99.90;;;;;;5009782;28;20030;-80
2022/04/08 11:05:04;;;;;;;5.57;1.42;;;16.90;99.90;;;;;;4998347;28;20085;-80
2022/04/08 11:07:34;;;;;;;6.05;0.80;;;16.40;99.90;;;;;;4997683;28;20031;-80
2022/04/08 11:10:00;;;;;;;2.77;0.63;;;15.00;99.90;;;;;;5003196;28;20652;-79
2022/04/08 11:12:28;;;;;;;4.88;1.38;;;15.90;99.90;;;;;;4993435;28;20264;-80
2022/04/08 11:15:02;;;;;;;2.95;0.82;;;16.60;99.90;;;;;;4998382;28;20576;-81
2022/04/08 11:17:37;;;;;;;3.15;1.00;;;17.20;99.90;;;;;;5011973;28;20025;-79
2022/04/08 11:20:07;;;;;;;3.78;1.02;;;16.10;99.90;;;;;;5012582;28;20029;-80
2022/04/08 11:22:44;;;;;;;4.72;1.17;;;15.20;99.90;;;;;;5011179;28;20037;-79
2022/04/08 11:25:18;;;;;;;3.70;0.90;;;15.10;99.90;;;;;;5005382;28;20109;-80
2022/04/08 11:27:43;;;;;;;3.70;0.80;;;15.20;99.90;;;;;;5012049;28;20092;-80
2022/04/08 11:30:09;;;;;;;5.65;0.82;;;14.50;99.90;;;;;;5012026;28;20030;-80
2022/04/08 11:32:38;;;;;;;2.78;0.85;;;14.40;99.90;;;;;;5011839;28;20117;-80
2022/04/08 11:35:13;;;;;;;1.73;0.68;;;14.90;99.90;;;;;;5012165;28;20104;-80
2022/04/08 11:37:39;;;;;;;6.35;0.68;;;14.30;99.90;;;;;;5020042;28;20481;-79
2022/04/08 11:40:06;;;;;;;7.07;1.25;;;14.20;99.90;;;;;;5023355;28;20052;-78
2022/04/08 11:42:31;;;;;;;4.53;1.35;;;14.40;99.90;;;;;;5001673;28;20544;-79
2022/04/08 11:44:58;;;;;;;4.10;1.33;;;14.70;99.90;;;;;;4995248;28;20026;-80
2022/04/08 11:47:31;;;;;;;4.85;1.90;;;14.70;99.90;;;;;;5013020;28;20067;-81
2022/04/08 11:50:08;;;;;;;5.72;1.55;;;14.60;99.90;;;;;;5013658;28;20037;-81
2022/04/08 11:52:37;;;;;;;4.32;1.20;;;14.00;99.90;;;;;;5014179;28;20504;-80
2022/04/08 11:55:08;;;;;;;5.50;1.25;;;13.80;99.90;;;;;;4995698;28;20014;-80
2022/04/08 11:57:35;;;;;;;9.35;1.38;;;14.20;99.90;;;;;;5020692;28;20084;-79
2022/04/08 12:00:06;;;;;;;3.75;0.80;;;14.80;99.90;;;;;;5022002;28;20030;-80
2022/04/08 12:02:31;;;;;;;3.20;0.60;;;15.10;99.90;;;;;;5015225;28;20033;-79
2022/04/08 12:04:57;;;;;;;2.65;0.70;;;15.70;99.90;;;;;;5018496;28;20032;-79
2022/04/08 12:07:25;;;;;;;6.40;0.93;;;14.20;99.90;;;;;;5004663;28;20033;-79
2022/04/08 12:09:56;;;;;;;4.57;0.88;;;13.60;99.90;;;;;;5014836;28;20049;-79
2022/04/08 12:12:27;;;;;;;2.40;0.80;;;13.40;99.90;;;;;;5023780;28;20030;-79
2022/04/08 12:14:53;;;;;;;4.63;1.13;;;13.00;99.90;;;;;;5022871;28;20673;-80
2022/04/08 12:17:19;;;;;;;6.55;1.35;;;13.10;99.90;;;;;;5022014;28;20041;-79
2022/04/08 12:19:47;;;;;;;4.32;1.30;;;13.50;99.90;;;;;;5019572;28;20036;-79
2022/04/08 12:22:14;;;;;;;5.93;0.82;;;13.80;99.90;;;;;;5018593;28;20109;-80
2022/04/08 12:24:45;;;;;;;3.80;1.30;;;13.70;99.90;;;;;;5020842;28;20036;-79
2022/04/08 12:27:19;;;;;;;6.65;1.48;;;14.20;99.90;;;;;;5019562;28;20026;-80
2022/04/08 12:29:46;;;;;;;2.70;1.00;;;14.20;99.90;;;;;;5017773;28;20120;-79
2022/04/08 12:32:15;;;;;;;3.67;0.65;;;14.40;99.90;;;;;;5016701;28;20025;-79
2022/04/08 12:34:44;;;;;;;2.83;1.08;;;14.50;99.90;;;;;;5007676;28;20026;-79
2022/04/08 12:37:10;;;;;;;3.22;1.08;;;14.00;99.90;;;;;;5015980;28;20022;-79
2022/04/08 12:39:36;;;;;;;6.30;1.02;;;13.80;99.90;;;;;;5016011;28;20030;-79
2022/04/08 12:42:02;;;;;;;5.80;0.98;;;14.10;99.90;;;;;;5017282;28;20369;-81
2022/04/08 12:44:28;;;;;;;2.70;0.80;;;14.10;99.90;;;;;;5013087;28;20117;-80
2022/04/08 12:46:55;;;;;;;3.05;0.68;;;13.80;99.90;;;;;;5010429;28;20050;-80
2022/04/08 12:49:21;;;;;;;3.65;1.08;;;13.90;99.90;;;;;;4994415;28;20106;-80
2022/04/08 12:51:46;;;;;;;5.03;0.70;;;14.20;99.90;;;;;;5010072;28;20496;-80